createdAt,value
2019-03-19T00:00:15.457Z,55.94
2019-03-19T00:02:43.962Z,55.46
2019-03-19T00:05:12.424Z,55.27
2019-03-19T00:07:40.987Z,54.75
2019-03-19T00:10:10.099Z,54.45
2019-03-19T00:12:38.673Z,54.74
2019-03-19T00:15:09.630Z,56.14
2019-03-19T00:17:38.096Z,56.64
2019-03-19T00:20:16.655Z,57.19
2019-03-19T00:22:45.355Z,57.40
2019-03-19T00:25:13.992Z,57.68
2019-03-19T00:27:42.490Z,57.73
2019-03-19T00:30:16.236Z,57.83
2019-03-19T00:32:44.751Z,57.38
2019-03-19T00:35:13.480Z,56.94
2019-03-19T00:37:41.975Z,57.25
2019-03-19T00:40:12.112Z,57.52
2019-03-19T00:42:40.578Z,58.06
2019-03-19T00:45:11.411Z,58.04
2019-03-19T00:47:39.876Z,56.94
2019-03-19T00:50:12.716Z,56.86
2019-03-19T00:52:41.182Z,56.49
2019-03-19T00:55:10.119Z,55.96
2019-03-19T00:57:38.589Z,57.07
2019-03-19T01:00:10.218Z,56.96
2019-03-19T01:02:38.685Z,57.70
2019-03-19T01:05:08.916Z,58.39
2019-03-19T01:07:37.391Z,57.81
2019-03-19T01:10:13.623Z,57.96
2019-03-19T01:12:42.232Z,57.94
2019-03-19T01:15:15.211Z,57.93
2019-03-19T01:17:43.806Z,57.20
2019-03-19T01:20:14.862Z,56.95
2019-03-19T01:22:43.366Z,57.09
2019-03-19T01:25:11.986Z,57.74
2019-03-19T01:27:40.452Z,58.10
2019-03-19T01:30:11.762Z,56.59
2019-03-19T01:32:40.297Z,57.34
2019-03-19T01:35:08.855Z,57.64
2019-03-19T01:37:37.527Z,58.07
2019-03-19T01:40:11.165Z,56.91
2019-03-19T01:42:39.783Z,56.17
2019-03-19T01:45:14.473Z,56.92
2019-03-19T01:47:43.035Z,56.19
2019-03-19T01:50:13.782Z,55.79
2019-03-19T01:52:43.302Z,55.29
2019-03-19T01:55:13.204Z,55.08
2019-03-19T01:57:41.810Z,54.87
2019-03-19T02:00:12.627Z,54.26
2019-03-19T02:02:41.200Z,54.49
2019-03-19T02:05:09.905Z,55.22
2019-03-19T02:07:38.471Z,54.99
2019-03-19T02:10:12.130Z,54.70
2019-03-19T02:12:40.684Z,54.45
2019-03-19T02:15:18.611Z,54.79
2019-03-19T02:17:47.161Z,54.88
2019-03-19T02:20:16.977Z,54.71
2019-03-19T02:22:45.799Z,55.04
2019-03-19T02:25:15.330Z,54.26
2019-03-19T02:27:43.748Z,54.78
2019-03-19T02:30:14.461Z,55.23
2019-03-19T02:32:42.939Z,54.79
2019-03-19T02:35:11.720Z,54.55
2019-03-19T02:37:40.223Z,54.41
2019-03-19T02:40:17.514Z,54.35
2019-03-19T02:42:45.995Z,54.53
2019-03-19T02:45:15.425Z,54.17
2019-03-19T02:47:44.018Z,54.71
2019-03-19T02:50:17.519Z,55.28
2019-03-19T02:52:46.171Z,55.46
2019-03-19T02:55:14.634Z,54.75
2019-03-19T02:57:43.130Z,54.14
2019-03-19T03:00:20.704Z,54.13
2019-03-19T03:02:49.251Z,53.81
2019-03-19T03:05:21.555Z,54.51
2019-03-19T03:07:50.210Z,54.69
2019-03-19T03:10:18.697Z,54.78
2019-03-19T03:12:47.156Z,55.09
2019-03-19T03:15:16.304Z,54.68
2019-03-19T03:17:44.922Z,54.70
2019-03-19T03:20:14.951Z,54.94
2019-03-19T03:22:43.582Z,56.04
2019-03-19T03:25:16.330Z,55.16
2019-03-19T03:27:44.984Z,55.79
2019-03-19T03:30:23.253Z,59.13
2019-03-19T03:32:51.965Z,60.23
2019-03-19T03:35:20.603Z,62.55
2019-03-19T03:37:49.144Z,61.78
2019-03-19T03:40:18.884Z,60.87
2019-03-19T03:42:47.416Z,61.16
2019-03-19T03:45:16.837Z,61.29
2019-03-19T03:47:45.337Z,64.35
2019-03-19T03:50:17.494Z,62.27
2019-03-19T03:52:46.024Z,61.24
2019-03-19T03:55:15.663Z,60.38
2019-03-19T03:57:44.152Z,59.68
2019-03-19T04:00:14.980Z,59.39
2019-03-19T04:02:44.914Z,59.45
2019-03-19T04:05:13.858Z,60.53
2019-03-19T04:07:42.319Z,59.67
2019-03-19T04:10:12.562Z,59.99
2019-03-19T04:12:41.030Z,59.69
2019-03-19T04:15:12.558Z,59.77
2019-03-19T04:17:41.143Z,62.89
2019-03-19T04:20:11.367Z,64.88
2019-03-19T04:22:39.916Z,64.07
2019-03-19T04:25:10.051Z,62.89
2019-03-19T04:27:40.345Z,62.31
2019-03-19T04:30:19.860Z,64.74
2019-03-19T04:32:48.633Z,64.52
2019-03-19T04:35:17.289Z,64.48
2019-03-19T04:37:45.759Z,63.32
2019-03-19T04:40:15.582Z,62.57
2019-03-19T04:42:44.808Z,61.78
2019-03-19T04:45:17.308Z,62.10
2019-03-19T04:47:45.790Z,62.88
2019-03-19T04:50:15.295Z,63.40
2019-03-19T04:52:43.960Z,62.97
2019-03-19T04:55:16.388Z,64.28
2019-03-19T04:57:44.938Z,62.85
2019-03-19T05:00:18.672Z,61.96
2019-03-19T05:02:47.153Z,61.64
2019-03-19T05:05:15.770Z,61.15
2019-03-19T05:07:44.328Z,61.32
2019-03-19T05:10:14.997Z,61.50
2019-03-19T05:12:43.573Z,61.48
2019-03-19T05:15:12.438Z,61.83
2019-03-19T05:17:40.899Z,61.92
2019-03-19T05:20:15.081Z,61.64
2019-03-19T05:22:43.692Z,60.93
2019-03-19T05:25:12.328Z,61.03
2019-03-19T05:27:40.870Z,61.20
2019-03-19T05:30:15.225Z,60.54
2019-03-19T05:32:43.752Z,60.62
2019-03-19T05:35:12.311Z,60.61
2019-03-19T05:37:40.781Z,60.19
2019-03-19T05:40:13.858Z,60.53
2019-03-19T05:42:42.394Z,60.93
2019-03-19T05:45:12.604Z,60.68
2019-03-19T05:47:41.092Z,60.65
2019-03-19T05:50:20.535Z,60.72
2019-03-19T05:52:49.046Z,60.16
2019-03-19T05:55:17.492Z,60.30
2019-03-19T05:57:49.960Z,60.13
2019-03-19T06:00:19.994Z,59.92
2019-03-19T06:02:48.482Z,59.57
2019-03-19T06:05:17.020Z,59.14
2019-03-19T06:07:45.545Z,59.70
2019-03-19T06:10:14.644Z,59.06
2019-03-19T06:12:43.179Z,58.82
2019-03-19T06:15:13.766Z,59.66
2019-03-19T06:17:42.233Z,59.37
2019-03-19T06:20:16.452Z,58.80
2019-03-19T06:22:45.044Z,58.06
2019-03-19T06:25:14.166Z,57.55
2019-03-19T06:27:42.802Z,58.02
2019-03-19T06:30:19.267Z,58.91
2019-03-19T06:32:47.758Z,60.20
2019-03-19T06:35:17.056Z,59.58
2019-03-19T06:37:45.739Z,58.40
2019-03-19T06:40:16.715Z,56.90
2019-03-19T06:42:45.187Z,56.62
2019-03-19T06:45:18.784Z,56.62
2019-03-19T06:47:47.348Z,56.12
2019-03-19T06:50:19.383Z,55.72
2019-03-19T06:52:47.892Z,55.06
2019-03-19T06:55:17.407Z,54.92
2019-03-19T06:57:45.923Z,55.12
2019-03-19T07:00:22.005Z,54.75
2019-03-19T07:02:50.573Z,55.87
2019-03-19T07:05:22.784Z,56.24
2019-03-19T07:07:51.493Z,55.17
2019-03-19T07:10:21.385Z,54.96
2019-03-19T07:12:49.924Z,54.58
2019-03-19T07:15:22.401Z,57.21
2019-03-19T07:17:50.950Z,57.96
2019-03-19T07:20:24.110Z,57.23
2019-03-19T07:22:52.644Z,54.94
2019-03-19T07:25:21.288Z,54.50
2019-03-19T07:27:49.754Z,52.95
2019-03-19T07:30:19.588Z,53.81
2019-03-19T07:32:48.157Z,54.15
2019-03-19T07:35:16.906Z,54.00
2019-03-19T07:37:45.371Z,53.74
2019-03-19T07:40:15.104Z,52.93
2019-03-19T07:42:43.708Z,51.44
2019-03-19T07:45:26.027Z,49.85
2019-03-19T07:47:55.127Z,49.42
2019-03-19T07:50:24.251Z,48.17
2019-03-19T07:52:52.750Z,50.07
2019-03-19T07:55:21.320Z,49.39
2019-03-19T07:57:49.799Z,46.82
2019-03-19T08:00:22.150Z,46.92
2019-03-19T08:02:50.714Z,43.22
2019-03-19T08:05:19.183Z,44.90
2019-03-19T08:07:47.684Z,43.69
2019-03-19T08:10:19.885Z,44.68
2019-03-19T08:12:48.383Z,43.73
2019-03-19T08:15:18.827Z,44.12
2019-03-19T08:17:47.407Z,45.01
2019-03-19T08:20:16.508Z,43.86
2019-03-19T08:22:45.037Z,44.08
2019-03-19T08:25:14.585Z,44.57
2019-03-19T08:27:43.192Z,45.28
2019-03-19T08:30:25.652Z,43.59
2019-03-19T08:32:55.241Z,44.46
2019-03-19T08:35:23.746Z,45.92
2019-03-19T08:37:52.220Z,47.52
2019-03-19T08:40:21.263Z,43.77
2019-03-19T08:42:49.722Z,44.17
2019-03-19T08:45:22.351Z,44.27
2019-03-19T08:47:50.909Z,44.77
2019-03-19T08:50:22.454Z,44.92
2019-03-19T08:52:51.056Z,43.40
2019-03-19T08:55:19.719Z,42.41
2019-03-19T08:57:48.190Z,44.03
2019-03-19T09:00:23.927Z,43.23
2019-03-19T09:02:52.431Z,43.51
2019-03-19T09:05:20.890Z,42.62
2019-03-19T09:07:49.378Z,43.53
2019-03-19T09:10:18.888Z,40.92
2019-03-19T09:12:48.686Z,41.55
2019-03-19T09:15:19.160Z,42.98
2019-03-19T09:17:47.644Z,45.44
2019-03-19T09:20:17.151Z,44.17
2019-03-19T09:22:45.965Z,41.15
2019-03-19T09:25:14.668Z,41.83
2019-03-19T09:27:43.145Z,42.77
2019-03-19T09:30:19.644Z,41.24
2019-03-19T09:32:48.123Z,39.54
2019-03-19T09:35:16.607Z,41.13
2019-03-19T09:37:57.194Z,39.94
2019-03-19T09:40:19.583Z,38.95
2019-03-19T09:42:48.189Z,39.58
2019-03-19T09:45:17.625Z,38.49
2019-03-19T09:47:46.802Z,39.85
2019-03-19T09:50:22.378Z,39.96
2019-03-19T09:52:50.921Z,39.06
2019-03-19T09:55:19.491Z,39.66
2019-03-19T09:57:48.025Z,38.06
2019-03-19T10:00:19.547Z,38.13
2019-03-19T10:02:48.354Z,38.48
2019-03-19T10:05:16.962Z,36.47
2019-03-19T10:07:45.528Z,36.64
2019-03-19T10:10:16.214Z,39.62
2019-03-19T10:12:44.742Z,39.17
2019-03-19T10:15:13.739Z,39.54
2019-03-19T10:17:42.238Z,39.40
2019-03-19T10:20:17.869Z,39.94
2019-03-19T10:22:46.931Z,42.42
2019-03-19T10:25:16.532Z,41.04
2019-03-19T10:27:45.045Z,40.20
2019-03-19T10:30:18.645Z,39.59
2019-03-19T10:32:47.543Z,40.59
2019-03-19T10:35:16.471Z,40.45
2019-03-19T10:37:45.042Z,37.17
2019-03-19T10:40:15.930Z,38.05
2019-03-19T10:42:44.464Z,35.38
2019-03-19T10:45:15.445Z,35.38
2019-03-19T10:47:44.001Z,39.68
2019-03-19T10:50:45.666Z,40.18
2019-03-19T10:53:14.323Z,39.91
2019-03-19T10:55:42.802Z,39.30
2019-03-19T10:58:11.562Z,37.22
2019-03-19T11:00:40.155Z,37.18
2019-03-19T11:03:08.696Z,38.49
2019-03-19T11:05:37.232Z,37.45
2019-03-19T11:08:06.139Z,38.16
2019-03-19T11:10:34.657Z,36.65
2019-03-19T11:13:03.159Z,37.67
2019-03-19T11:15:31.912Z,37.91
2019-03-19T11:18:00.479Z,35.11
2019-03-19T11:20:28.983Z,36.61
2019-03-19T11:22:57.449Z,38.27
2019-03-19T11:25:30.075Z,40.25
2019-03-19T11:27:58.545Z,42.30
2019-03-19T11:30:30.897Z,40.64
2019-03-19T11:32:59.577Z,41.75
2019-03-19T11:35:28.414Z,38.87
2019-03-19T11:37:56.907Z,35.61
2019-03-19T11:40:26.086Z,39.49
2019-03-19T11:42:54.829Z,42.14
2019-03-19T11:45:24.229Z,42.01
2019-03-19T11:47:53.146Z,41.68
2019-03-19T11:50:23.164Z,41.16
2019-03-19T11:52:52.149Z,43.19
2019-03-19T11:55:20.921Z,38.94
2019-03-19T11:57:49.457Z,36.91
2019-03-19T12:00:49.740Z,34.98
2019-03-19T12:03:18.216Z,30.80
2019-03-19T12:05:46.787Z,34.13
2019-03-19T12:08:15.254Z,35.34
2019-03-19T12:10:43.735Z,34.56
2019-03-19T12:13:12.275Z,34.34
2019-03-19T12:15:40.778Z,35.10
2019-03-19T12:18:09.241Z,36.04
2019-03-19T12:20:37.751Z,33.65
2019-03-19T12:23:06.535Z,33.54
2019-03-19T12:25:35.092Z,30.43
2019-03-19T12:28:03.695Z,30.15
2019-03-19T12:30:32.232Z,33.21
2019-03-19T12:33:00.725Z,31.08
2019-03-19T12:35:30.780Z,32.21
2019-03-19T12:37:59.562Z,31.67
2019-03-19T12:40:36.201Z,31.74
2019-03-19T12:42:58.314Z,30.30
2019-03-19T12:45:26.811Z,32.77
2019-03-19T12:47:55.279Z,36.57
2019-03-19T12:50:27.325Z,37.28
2019-03-19T12:52:55.786Z,38.47
2019-03-19T12:55:24.327Z,36.50
2019-03-19T12:57:52.825Z,37.93
2019-03-19T13:00:32.973Z,39.59
2019-03-19T13:02:52.630Z,37.69
2019-03-19T13:05:22.629Z,36.90
2019-03-19T13:07:51.211Z,35.80
2019-03-19T13:10:21.679Z,38.43
2019-03-19T13:12:50.178Z,36.22
2019-03-19T13:15:19.675Z,36.78
2019-03-19T13:17:48.557Z,36.28
2019-03-19T13:20:21.390Z,35.87
2019-03-19T13:22:49.954Z,37.06
2019-03-19T13:25:22.375Z,36.65
2019-03-19T13:27:51.081Z,36.49
2019-03-19T13:30:26.952Z,34.91
2019-03-19T13:32:55.468Z,34.10
2019-03-19T13:35:23.922Z,34.99
2019-03-19T13:37:52.392Z,34.92
2019-03-19T13:40:21.118Z,34.63
2019-03-19T13:42:49.767Z,34.58
2019-03-19T13:45:22.909Z,34.71
2019-03-19T13:47:51.444Z,34.50
2019-03-19T13:50:20.868Z,34.26
2019-03-19T13:52:49.514Z,34.98
2019-03-19T13:55:20.252Z,35.40
2019-03-19T13:57:48.946Z,35.91
2019-03-19T14:00:18.158Z,35.37
2019-03-19T14:02:47.003Z,35.55
2019-03-19T14:05:16.365Z,35.81
2019-03-19T14:07:44.974Z,36.17
2019-03-19T14:10:17.361Z,36.14
2019-03-19T14:12:45.908Z,35.52
2019-03-19T14:15:22.146Z,36.02
2019-03-19T14:17:50.730Z,36.02
2019-03-19T14:20:19.203Z,35.72
2019-03-19T14:22:47.772Z,35.79
2019-03-19T14:25:16.679Z,36.89
2019-03-19T14:27:45.428Z,39.47
2019-03-19T14:30:20.835Z,39.85
2019-03-19T14:32:49.305Z,37.72
2019-03-19T14:35:17.881Z,37.53
2019-03-19T14:37:46.686Z,37.73
2019-03-19T14:40:23.667Z,38.01
2019-03-19T14:42:52.280Z,37.72
2019-03-19T14:45:20.834Z,38.41
2019-03-19T14:47:49.315Z,37.94
2019-03-19T14:50:20.131Z,37.40
2019-03-19T14:52:48.595Z,35.44
2019-03-19T14:55:17.231Z,35.83
2019-03-19T14:57:45.700Z,36.04
2019-03-19T15:00:19.041Z,35.54
2019-03-19T15:02:47.565Z,35.98
2019-03-19T15:05:16.338Z,36.70
2019-03-19T15:07:45.247Z,36.02
2019-03-19T15:10:23.926Z,35.11
2019-03-19T15:12:52.402Z,35.51
2019-03-19T15:15:21.835Z,34.93
2019-03-19T15:17:50.395Z,34.77
2019-03-19T15:20:24.349Z,34.82
2019-03-19T15:22:54.508Z,34.55
2019-03-19T15:25:23.176Z,33.79
2019-03-19T15:27:51.703Z,34.13
2019-03-19T15:30:20.947Z,35.32
2019-03-19T15:32:49.722Z,33.88
2019-03-19T15:35:18.180Z,33.96
2019-03-19T15:37:46.683Z,33.67
2019-03-19T15:40:20.230Z,33.59
2019-03-19T15:42:48.940Z,33.31
2019-03-19T15:45:20.021Z,34.33
2019-03-19T15:47:48.596Z,33.25
2019-03-19T15:50:17.447Z,33.81
2019-03-19T15:52:45.992Z,33.53
2019-03-19T15:55:15.234Z,34.38
2019-03-19T15:57:44.039Z,33.18
2019-03-19T16:00:20.763Z,33.63
2019-03-19T16:02:49.377Z,34.89
2019-03-19T16:05:18.181Z,35.11
2019-03-19T16:07:46.786Z,37.00
2019-03-19T16:10:16.240Z,39.16
2019-03-19T16:12:44.709Z,39.54
2019-03-19T16:15:21.438Z,40.48
2019-03-19T16:17:49.939Z,40.53
2019-03-19T16:20:22.284Z,38.33
2019-03-19T16:22:51.020Z,40.07
2019-03-19T16:25:19.560Z,39.83
2019-03-19T16:27:48.073Z,41.05
2019-03-19T16:30:21.157Z,41.52
2019-03-19T16:32:49.616Z,39.77
2019-03-19T16:35:18.288Z,40.87
2019-03-19T16:37:46.759Z,40.74
2019-03-19T16:40:24.624Z,42.21
2019-03-19T16:42:53.088Z,39.71
2019-03-19T16:45:21.656Z,39.98
2019-03-19T16:47:50.122Z,41.09
2019-03-19T16:50:23.319Z,41.75
2019-03-19T16:52:51.914Z,42.31
2019-03-19T16:55:21.716Z,41.99
2019-03-19T16:57:50.188Z,42.00
2019-03-19T17:00:22.475Z,43.14
2019-03-19T17:02:51.049Z,43.00
2019-03-19T17:05:19.762Z,43.15
2019-03-19T17:07:48.396Z,43.39
2019-03-19T17:10:27.611Z,42.39
2019-03-19T17:12:56.122Z,42.70
2019-03-19T17:15:24.837Z,43.43
2019-03-19T17:17:53.297Z,43.37
2019-03-19T17:20:21.882Z,42.62
2019-03-19T17:22:50.424Z,41.81
2019-03-19T17:25:24.176Z,40.95
2019-03-19T17:27:52.679Z,41.43
2019-03-19T17:30:32.075Z,41.16
2019-03-19T17:33:00.608Z,40.85
2019-03-19T17:35:29.115Z,41.06
2019-03-19T17:37:57.601Z,42.16
2019-03-19T17:40:26.099Z,43.79
2019-03-19T17:42:56.110Z,43.04
2019-03-19T17:45:24.608Z,44.15
2019-03-19T17:47:53.089Z,43.79
2019-03-19T17:50:32.835Z,42.37
2019-03-19T17:53:01.308Z,42.29
2019-03-19T17:55:29.793Z,43.35
2019-03-19T17:57:58.302Z,43.89
2019-03-19T18:00:31.554Z,43.71
2019-03-19T18:03:00.054Z,43.14
2019-03-19T18:05:28.565Z,43.36
2019-03-19T18:07:57.034Z,43.77
2019-03-19T18:10:25.535Z,45.23
2019-03-19T18:12:54.009Z,44.55
2019-03-19T18:15:22.523Z,43.50
2019-03-19T18:17:50.999Z,43.38
2019-03-19T18:20:19.473Z,42.90
2019-03-19T18:22:47.997Z,44.04
2019-03-19T18:25:18.579Z,44.65
2019-03-19T18:27:47.194Z,44.74
2019-03-19T18:30:17.751Z,45.15
2019-03-19T18:32:46.330Z,45.19
2019-03-19T18:35:14.916Z,44.27
2019-03-19T18:37:43.498Z,44.81
2019-03-19T18:40:16.583Z,44.61
2019-03-19T18:42:45.315Z,43.68
2019-03-19T18:45:20.476Z,44.36
2019-03-19T18:47:49.049Z,46.06
2019-03-19T18:50:18.709Z,45.80
2019-03-19T18:52:47.369Z,46.11
2019-03-19T18:55:16.102Z,44.75
2019-03-19T18:57:44.590Z,45.71
2019-03-19T19:00:17.444Z,46.34
2019-03-19T19:02:50.183Z,46.51
2019-03-19T19:05:17.444Z,46.62
2019-03-19T19:07:45.933Z,47.23
2019-03-19T19:10:15.646Z,47.46
2019-03-19T19:12:44.361Z,47.66
2019-03-19T19:15:15.883Z,48.23
2019-03-19T19:17:45.333Z,48.20
2019-03-19T19:20:15.063Z,48.30
2019-03-19T19:22:43.554Z,48.12
2019-03-19T19:25:17.260Z,47.91
2019-03-19T19:27:45.810Z,48.58
2019-03-19T19:30:25.588Z,48.43
2019-03-19T19:33:01.396Z,48.52
2019-03-19T19:35:25.156Z,48.94
2019-03-19T19:37:53.735Z,49.17
2019-03-19T19:40:22.323Z,49.84
2019-03-19T19:42:50.794Z,50.05
2019-03-19T19:45:19.874Z,50.19
2019-03-19T19:47:48.427Z,50.64
2019-03-19T19:50:21.609Z,50.89
2019-03-19T19:52:50.117Z,49.86
2019-03-19T19:55:18.701Z,50.39
2019-03-19T19:57:47.470Z,50.31
2019-03-19T20:00:23.427Z,50.97
2019-03-19T20:02:54.399Z,49.40
2019-03-19T20:05:22.876Z,49.98
2019-03-19T20:07:51.373Z,49.79
2019-03-19T20:10:27.006Z,49.25
2019-03-19T20:12:55.513Z,49.16
2019-03-19T20:15:23.991Z,49.81
2019-03-19T20:17:53.580Z,49.63
2019-03-19T20:20:30.479Z,51.03
2019-03-19T20:22:58.964Z,51.67
2019-03-19T20:25:27.444Z,51.87
2019-03-19T20:27:55.920Z,51.67
2019-03-19T20:30:28.426Z,51.82
2019-03-19T20:32:57.039Z,49.82
2019-03-19T20:35:25.517Z,49.24
2019-03-19T20:37:53.997Z,49.23
2019-03-19T20:40:22.500Z,49.27
2019-03-19T20:42:50.976Z,47.37
2019-03-19T20:45:26.825Z,47.19
2019-03-19T20:47:56.850Z,47.16
2019-03-19T20:50:28.317Z,47.07
2019-03-19T20:52:56.784Z,47.24
2019-03-19T20:55:25.356Z,47.36
2019-03-19T20:57:53.880Z,46.90
2019-03-19T21:00:22.421Z,47.11
2019-03-19T21:02:50.898Z,47.71
2019-03-19T21:05:19.475Z,46.71
2019-03-19T21:07:48.062Z,46.82
2019-03-19T21:10:21.969Z,46.99
2019-03-19T21:12:50.555Z,47.10
2019-03-19T21:15:22.079Z,47.91
2019-03-19T21:17:50.574Z,47.23
2019-03-19T21:20:19.156Z,46.90
2019-03-19T21:22:47.715Z,47.04
2019-03-19T21:25:16.255Z,47.14
2019-03-19T21:27:44.905Z,48.51
2019-03-19T21:30:16.269Z,47.95
2019-03-19T21:32:44.892Z,47.66
2019-03-19T21:35:13.503Z,48.80
2019-03-19T21:37:42.049Z,49.14
2019-03-19T21:40:14.908Z,49.15
2019-03-19T21:42:43.761Z,49.32
2019-03-19T21:45:16.624Z,49.49
2019-03-19T21:47:45.186Z,49.65
2019-03-19T21:50:16.338Z,49.17
2019-03-19T21:52:44.916Z,49.84
2019-03-19T21:55:14.514Z,49.74
2019-03-19T21:57:43.133Z,50.00
2019-03-19T22:00:22.468Z,50.40
2019-03-19T22:02:50.971Z,50.85
2019-03-19T22:05:19.546Z,51.62
2019-03-19T22:07:48.021Z,51.75
2019-03-19T22:10:18.635Z,51.52
2019-03-19T22:12:49.258Z,51.54
2019-03-19T22:15:26.059Z,51.37
2019-03-19T22:17:54.615Z,52.62
2019-03-19T22:20:23.160Z,52.17
2019-03-19T22:22:51.737Z,51.54
2019-03-19T22:25:20.805Z,51.51
2019-03-19T22:27:49.318Z,51.33
2019-03-19T22:30:21.961Z,51.87
2019-03-19T22:32:50.467Z,51.93
2019-03-19T22:35:18.944Z,52.82
2019-03-19T22:37:47.671Z,52.23
2019-03-19T22:40:17.091Z,52.74
2019-03-19T22:42:46.041Z,52.33
2019-03-19T22:45:15.946Z,52.70
2019-03-19T22:47:44.601Z,52.75
2019-03-19T22:50:19.350Z,52.75
2019-03-19T22:52:48.208Z,52.84
2019-03-19T22:55:28.189Z,52.49
2019-03-19T22:57:47.293Z,52.84
2019-03-19T23:00:38.338Z,52.09
2019-03-19T23:03:07.937Z,52.53
2019-03-19T23:05:36.945Z,53.24
2019-03-19T23:08:05.566Z,52.54
2019-03-19T23:10:34.682Z,52.93
2019-03-19T23:13:03.301Z,52.77
2019-03-19T23:15:32.014Z,52.98
2019-03-19T23:18:00.665Z,53.45
2019-03-19T23:20:29.386Z,53.38
2019-03-19T23:22:57.896Z,53.22
2019-03-19T23:25:26.540Z,53.22
2019-03-19T23:27:55.025Z,53.34
2019-03-19T23:30:24.572Z,52.85
2019-03-19T23:32:53.052Z,52.91
2019-03-19T23:35:21.562Z,53.23
2019-03-19T23:37:50.068Z,53.37
2019-03-19T23:40:19.810Z,53.46
2019-03-19T23:42:48.284Z,53.58
2019-03-19T23:45:16.863Z,53.98
2019-03-19T23:47:45.350Z,53.72
2019-03-19T23:50:18.852Z,53.84
2019-03-19T23:52:47.609Z,54.19
2019-03-19T23:55:16.223Z,54.49
2019-03-19T23:57:44.734Z,54.12
